sensor_id;sensor_type;location;lat;lon;timestamp;pressure;altitude;pressure_sealevel;temperature;humidity
24858;BME280;12935;50.782;6.074;2023-11-19T00:01:10;98979.47;;;12.01;100.00
24858;BME280;12935;50.782;6.074;2023-11-19T00:03:36;98986.44;;;12.06;100.00
24858;BME280;12935;50.782;6.074;2023-11-19T00:06:01;98966.19;;;12.00;100.00
24858;BME280;12935;50.782;6.074;2023-11-19T00:08:26;98969.72;;;12.00;100.00
24858;BME280;12935;50.782;6.074;2023-11-19T00:10:52;98970.75;;;12.10;100.00
24858;BME280;12935;50.782;6.074;2023-11-19T00:13:17;98958.66;;;12.07;100.00
24858;BME280;12935;50.782;6.074;2023-11-19T00:15:42;98963.34;;;12.07;100.00
24858;BME280;12935;50.782;6.074;2023-11-19T00:18:08;98960.22;;;12.08;100.00
24858;BME280;12935;50.782;6.074;2023-11-19T00:20:33;98969.97;;;12.09;100.00
24858;BME280;12935;50.782;6.074;2023-11-19T00:22:58;98959.03;;;12.09;100.00
24858;BME280;12935;50.782;6.074;2023-11-19T00:25:24;98962.16;;;12.08;100.00
24858;BME280;12935;50.782;6.074;2023-11-19T00:27:50;98949.88;;;12.16;100.00
24858;BME280;12935;50.782;6.074;2023-11-19T00:30:16;98961.81;;;12.06;100.00
24858;BME280;12935;50.782;6.074;2023-11-19T00:32:42;98958.88;;;12.16;100.00
24858;BME280;12935;50.782;6.074;2023-11-19T00:35:07;98958.88;;;12.16;100.00
24858;BME280;12935;50.782;6.074;2023-11-19T00:37:33;98959.06;;;12.06;100.00
24858;BME280;12935;50.782;6.074;2023-11-19T00:39:58;98943.41;;;12.06;100.00
24858;BME280;12935;50.782;6.074;2023-11-19T00:42:23;98949.00;;;11.99;100.00
24858;BME280;12935;50.782;6.074;2023-11-19T00:44:50;98965.97;;;12.14;100.00
24858;BME280;12935;50.782;6.074;2023-11-19T00:47:15;98961.97;;;12.18;100.00
24858;BME280;12935;50.782;6.074;2023-11-19T00:49:40;98945.34;;;12.29;100.00
24858;BME280;12935;50.782;6.074;2023-11-19T00:52:05;98949.28;;;12.28;100.00
24858;BME280;12935;50.782;6.074;2023-11-19T00:54:31;98964.31;;;12.20;100.00
24858;BME280;12935;50.782;6.074;2023-11-19T00:56:57;98953.47;;;12.13;100.00
24858;BME280;12935;50.782;6.074;2023-11-19T00:59:22;98956.44;;;12.22;100.00
24858;BME280;12935;50.782;6.074;2023-11-19T01:01:47;98956.09;;;12.20;100.00
24858;BME280;12935;50.782;6.074;2023-11-19T01:04:14;98951.56;;;12.33;100.00
24858;BME280;12935;50.782;6.074;2023-11-19T01:06:40;98949.84;;;12.43;100.00
24858;BME280;12935;50.782;6.074;2023-11-19T01:09:05;98937.22;;;12.45;100.00
24858;BME280;12935;50.782;6.074;2023-11-19T01:11:31;98936.59;;;12.38;100.00
24858;BME280;12935;50.782;6.074;2023-11-19T01:13:56;98943.06;;;12.27;100.00
24858;BME280;12935;50.782;6.074;2023-11-19T01:16:21;98951.34;;;12.24;100.00
24858;BME280;12935;50.782;6.074;2023-11-19T01:18:47;98937.69;;;12.20;100.00
24858;BME280;12935;50.782;6.074;2023-11-19T01:21:13;98947.25;;;12.32;100.00
24858;BME280;12935;50.782;6.074;2023-11-19T01:23:42;98946.84;;;12.34;100.00
24858;BME280;12935;50.782;6.074;2023-11-19T01:26:12;98957.75;;;12.37;100.00
24858;BME280;12935;50.782;6.074;2023-11-19T01:28:40;98965.25;;;12.33;100.00
24858;BME280;12935;50.782;6.074;2023-11-19T01:31:10;98956.91;;;12.40;100.00
24858;BME280;12935;50.782;6.074;2023-11-19T01:33:36;98946.38;;;12.39;100.00
24858;BME280;12935;50.782;6.074;2023-11-19T01:36:02;98950.78;;;12.33;100.00
24858;BME280;12935;50.782;6.074;2023-11-19T01:38:27;98947.22;;;12.36;100.00
24858;BME280;12935;50.782;6.074;2023-11-19T01:40:56;98958.75;;;12.47;100.00
24858;BME280;12935;50.782;6.074;2023-11-19T01:43:36;98938.09;;;12.42;100.00
24858;BME280;12935;50.782;6.074;2023-11-19T01:46:02;98947.78;;;12.47;100.00
24858;BME280;12935;50.782;6.074;2023-11-19T01:48:34;98951.34;;;12.44;100.00
24858;BME280;12935;50.782;6.074;2023-11-19T01:51:01;98930.00;;;12.35;100.00
24858;BME280;12935;50.782;6.074;2023-11-19T01:53:28;98945.97;;;12.40;100.00
24858;BME280;12935;50.782;6.074;2023-11-19T01:55:54;98934.91;;;12.44;100.00
24858;BME280;12935;50.782;6.074;2023-11-19T01:58:19;98935.69;;;12.44;100.00
24858;BME280;12935;50.782;6.074;2023-11-19T02:00:45;98930.16;;;12.48;100.00
24858;BME280;12935;50.782;6.074;2023-11-19T02:03:11;98925.16;;;12.43;100.00
24858;BME280;12935;50.782;6.074;2023-11-19T02:05:37;98922.34;;;12.46;100.00
24858;BME280;12935;50.782;6.074;2023-11-19T02:08:03;98911.75;;;12.48;100.00
24858;BME280;12935;50.782;6.074;2023-11-19T02:10:29;98910.50;;;12.53;100.00
24858;BME280;12935;50.782;6.074;2023-11-19T02:12:54;98903.03;;;12.53;100.00
24858;BME280;12935;50.782;6.074;2023-11-19T02:15:20;98910.53;;;12.49;100.00
24858;BME280;12935;50.782;6.074;2023-11-19T02:17:47;98917.00;;;12.39;100.00
24858;BME280;12935;50.782;6.074;2023-11-19T02:20:12;98919.59;;;12.46;100.00
24858;BME280;12935;50.782;6.074;2023-11-19T02:22:40;98927.13;;;12.42;100.00
24858;BME280;12935;50.782;6.074;2023-11-19T02:25:07;98920.88;;;12.42;100.00
24858;BME280;12935;50.782;6.074;2023-11-19T02:30:16;98920.09;;;12.41;100.00
24858;BME280;12935;50.782;6.074;2023-11-19T02:32:42;98917.28;;;12.45;100.00
24858;BME280;12935;50.782;6.074;2023-11-19T02:35:07;98921.56;;;12.46;100.00
24858;BME280;12935;50.782;6.074;2023-11-19T02:37:37;98905.91;;;12.46;100.00
24858;BME280;12935;50.782;6.074;2023-11-19T02:40:03;98908.50;;;12.34;100.00
24858;BME280;12935;50.782;6.074;2023-11-19T02:42:30;98919.09;;;12.32;100.00
24858;BME280;12935;50.782;6.074;2023-11-19T02:44:56;98909.16;;;12.41;100.00
24858;BME280;12935;50.782;6.074;2023-11-19T02:47:21;98909.00;;;12.48;100.00
24858;BME280;12935;50.782;6.074;2023-11-19T02:49:49;98914.81;;;12.30;100.00
24858;BME280;12935;50.782;6.074;2023-11-19T02:52:14;98924.56;;;12.32;100.00
24858;BME280;12935;50.782;6.074;2023-11-19T02:54:40;98918.56;;;12.40;100.00
24858;BME280;12935;50.782;6.074;2023-11-19T02:57:06;98912.25;;;12.43;100.00
24858;BME280;12935;50.782;6.074;2023-11-19T02:59:35;98914.34;;;12.36;100.00
24858;BME280;12935;50.782;6.074;2023-11-19T03:02:05;98890.44;;;12.36;100.00
24858;BME280;12935;50.782;6.074;2023-11-19T03:04:32;98896.50;;;12.47;100.00
24858;BME280;12935;50.782;6.074;2023-11-19T03:06:58;98893.13;;;12.40;100.00
24858;BME280;12935;50.782;6.074;2023-11-19T03:09:23;98887.22;;;12.41;100.00
24858;BME280;12935;50.782;6.074;2023-11-19T03:11:49;98903.25;;;12.43;100.00
24858;BME280;12935;50.782;6.074;2023-11-19T03:14:15;98896.22;;;12.42;100.00
24858;BME280;12935;50.782;6.074;2023-11-19T03:16:40;98881.34;;;12.43;100.00
24858;BME280;12935;50.782;6.074;2023-11-19T03:19:05;98890.66;;;12.45;100.00
24858;BME280;12935;50.782;6.074;2023-11-19T03:21:31;98894.47;;;12.51;100.00
24858;BME280;12935;50.782;6.074;2023-11-19T03:23:59;98920.78;;;12.45;100.00
24858;BME280;12935;50.782;6.074;2023-11-19T03:26:28;98894.31;;;12.39;100.00
24858;BME280;12935;50.782;6.074;2023-11-19T03:28:54;98897.59;;;12.30;100.00
24858;BME280;12935;50.782;6.074;2023-11-19T03:31:19;98892.47;;;12.32;100.00
24858;BME280;12935;50.782;6.074;2023-11-19T03:33:45;98889.47;;;12.26;100.00
24858;BME280;12935;50.782;6.074;2023-11-19T03:36:11;98886.38;;;12.24;100.00
24858;BME280;12935;50.782;6.074;2023-11-19T03:38:38;98895.00;;;12.23;100.00
24858;BME280;12935;50.782;6.074;2023-11-19T03:41:13;98883.69;;;12.21;100.00
24858;BME280;12935;50.782;6.074;2023-11-19T03:43:39;98894.09;;;12.29;100.00
24858;BME280;12935;50.782;6.074;2023-11-19T03:46:14;98899.97;;;12.28;100.00
24858;BME280;12935;50.782;6.074;2023-11-19T03:48:40;98893.03;;;12.23;100.00
24858;BME280;12935;50.782;6.074;2023-11-19T03:51:05;98901.19;;;12.27;100.00
24858;BME280;12935;50.782;6.074;2023-11-19T03:53:30;98879.88;;;12.15;100.00
24858;BME280;12935;50.782;6.074;2023-11-19T03:55:56;98905.13;;;12.26;100.00
24858;BME280;12935;50.782;6.074;2023-11-19T03:58:21;98905.47;;;12.28;100.00
24858;BME280;12935;50.782;6.074;2023-11-19T04:00:46;98898.31;;;12.34;100.00
24858;BME280;12935;50.782;6.074;2023-11-19T04:03:12;98897.53;;;12.34;100.00
24858;BME280;12935;50.782;6.074;2023-11-19T04:05:37;98891.63;;;12.35;100.00
24858;BME280;12935;50.782;6.074;2023-11-19T04:08:03;98907.66;;;12.37;100.00
24858;BME280;12935;50.782;6.074;2023-11-19T04:10:28;98912.84;;;12.31;100.00
24858;BME280;12935;50.782;6.074;2023-11-19T04:12:53;98912.38;;;12.36;100.00
24858;BME280;12935;50.782;6.074;2023-11-19T04:15:19;98909.97;;;12.38;100.00
24858;BME280;12935;50.782;6.074;2023-11-19T04:17:44;98924.56;;;12.32;100.00
24858;BME280;12935;50.782;6.074;2023-11-19T04:20:11;98923.75;;;12.35;100.00
24858;BME280;12935;50.782;6.074;2023-11-19T04:22:38;98925.28;;;12.36;100.00
24858;BME280;12935;50.782;6.074;2023-11-19T04:25:04;98918.47;;;12.24;100.00
24858;BME280;12935;50.782;6.074;2023-11-19T04:27:29;98920.13;;;12.18;100.00
24858;BME280;12935;50.782;6.074;2023-11-19T04:29:55;98919.34;;;12.17;100.00
24858;BME280;12935;50.782;6.074;2023-11-19T04:32:20;98919.81;;;12.12;100.00
24858;BME280;12935;50.782;6.074;2023-11-19T04:34:46;98933.81;;;12.18;100.00
24858;BME280;12935;50.782;6.074;2023-11-19T04:37:11;98935.50;;;12.12;100.00
24858;BME280;12935;50.782;6.074;2023-11-19T04:39:36;98946.63;;;12.01;100.00
24858;BME280;12935;50.782;6.074;2023-11-19T04:42:03;98928.63;;;12.00;100.00
24858;BME280;12935;50.782;6.074;2023-11-19T04:44:29;98936.91;;;11.97;100.00
24858;BME280;12935;50.782;6.074;2023-11-19T04:46:54;98937.63;;;12.01;100.00
24858;BME280;12935;50.782;6.074;2023-11-19T04:49:20;98929.06;;;11.99;100.00
24858;BME280;12935;50.782;6.074;2023-11-19T04:51:46;98938.72;;;12.07;100.00
24858;BME280;12935;50.782;6.074;2023-11-19T04:54:14;98923.16;;;12.00;100.00
24858;BME280;12935;50.782;6.074;2023-11-19T04:56:39;98932.81;;;12.08;100.00
24858;BME280;12935;50.782;6.074;2023-11-19T04:59:06;98926.97;;;12.06;100.00
24858;BME280;12935;50.782;6.074;2023-11-19T05:01:32;98914.19;;;12.00;100.00
24858;BME280;12935;50.782;6.074;2023-11-19T05:03:58;98912.81;;;11.88;100.00
24858;BME280;12935;50.782;6.074;2023-11-19T05:06:30;98929.38;;;12.04;100.00
24858;BME280;12935;50.782;6.074;2023-11-19T05:08:58;98934.84;;;12.04;100.00
24858;BME280;12935;50.782;6.074;2023-11-19T05:11:23;98937.03;;;12.13;100.00
24858;BME280;12935;50.782;6.074;2023-11-19T05:13:49;98942.09;;;12.14;100.00
24858;BME280;12935;50.782;6.074;2023-11-19T05:16:15;98947.69;;;12.07;100.00
24858;BME280;12935;50.782;6.074;2023-11-19T05:18:40;98947.41;;;12.02;100.00
24858;BME280;12935;50.782;6.074;2023-11-19T05:21:05;98946.66;;;11.98;100.00
24858;BME280;12935;50.782;6.074;2023-11-19T05:23:32;98951.31;;;12.01;100.00
24858;BME280;12935;50.782;6.074;2023-11-19T05:25:59;98958.41;;;11.98;100.00
24858;BME280;12935;50.782;6.074;2023-11-19T05:28:24;98958.81;;;11.97;100.00
24858;BME280;12935;50.782;6.074;2023-11-19T05:30:51;98955.66;;;11.98;100.00
24858;BME280;12935;50.782;6.074;2023-11-19T05:33:16;98956.44;;;11.99;100.00
24858;BME280;12935;50.782;6.074;2023-11-19T05:35:42;98957.22;;;11.99;100.00
24858;BME280;12935;50.782;6.074;2023-11-19T05:38:07;98951.69;;;12.03;100.00
24858;BME280;12935;50.782;6.074;2023-11-19T05:40:32;98950.91;;;12.02;100.00
24858;BME280;12935;50.782;6.074;2023-11-19T05:42:57;98937.16;;;12.06;100.00
24858;BME280;12935;50.782;6.074;2023-11-19T05:45:23;98951.69;;;12.03;100.00
24858;BME280;12935;50.782;6.074;2023-11-19T05:47:48;98952.00;;;12.08;100.00
24858;BME280;12935;50.782;6.074;2023-11-19T05:50:13;98961.03;;;12.05;100.00
24858;BME280;12935;50.782;6.074;2023-11-19T05:52:40;98968.88;;;12.03;100.00
24858;BME280;12935;50.782;6.074;2023-11-19T05:55:06;98967.22;;;12.09;100.00
24858;BME280;12935;50.782;6.074;2023-11-19T05:57:38;98971.56;;;12.07;100.00
24858;BME280;12935;50.782;6.074;2023-11-19T06:00:04;98965.78;;;12.01;100.00
24858;BME280;12935;50.782;6.074;2023-11-19T06:02:32;98969.31;;;12.02;100.00
24858;BME280;12935;50.782;6.074;2023-11-19T06:04:58;98978.47;;;12.15;100.00
24858;BME280;12935;50.782;6.074;2023-11-19T06:07:23;98984.06;;;12.08;100.00
24858;BME280;12935;50.782;6.074;2023-11-19T06:09:48;98969.75;;;11.97;100.00
24858;BME280;12935;50.782;6.074;2023-11-19T06:12:14;98977.34;;;11.89;100.00
24858;BME280;12935;50.782;6.074;2023-11-19T06:14:40;98971.44;;;11.90;100.00
24858;BME280;12935;50.782;6.074;2023-11-19T06:17:05;98971.81;;;11.92;100.00
24858;BME280;12935;50.782;6.074;2023-11-19T06:19:30;98960.66;;;11.80;100.00
24858;BME280;12935;50.782;6.074;2023-11-19T06:21:56;98964.19;;;11.80;100.00
24858;BME280;12935;50.782;6.074;2023-11-19T06:24:21;98976.31;;;11.79;100.00
24858;BME280;12935;50.782;6.074;2023-11-19T06:26:47;98976.31;;;11.79;100.00
24858;BME280;12935;50.782;6.074;2023-11-19T06:29:13;98982.63;;;11.73;100.00
24858;BME280;12935;50.782;6.074;2023-11-19T06:31:43;98971.28;;;11.74;100.00
24858;BME280;12935;50.782;6.074;2023-11-19T06:34:08;98976.75;;;11.74;100.00
24858;BME280;12935;50.782;6.074;2023-11-19T06:36:34;98974.00;;;11.74;100.00
24858;BME280;12935;50.782;6.074;2023-11-19T06:38:59;98975.56;;;11.75;100.00
24858;BME280;12935;50.782;6.074;2023-11-19T06:41:24;98979.88;;;11.76;100.00
24858;BME280;12935;50.782;6.074;2023-11-19T06:43:49;98984.59;;;11.72;100.00
24858;BME280;12935;50.782;6.074;2023-11-19T06:46:18;98986.91;;;11.74;100.00
24858;BME280;12935;50.782;6.074;2023-11-19T06:48:44;98989.28;;;11.72;100.00
24858;BME280;12935;50.782;6.074;2023-11-19T06:51:10;98981.19;;;11.65;100.00
24858;BME280;12935;50.782;6.074;2023-11-19T06:53:36;98979.66;;;11.64;100.00
24858;BME280;12935;50.782;6.074;2023-11-19T06:56:02;98989.75;;;11.67;100.00
24858;BME280;12935;50.782;6.074;2023-11-19T06:58:31;98968.59;;;11.71;100.00
24858;BME280;12935;50.782;6.074;2023-11-19T07:00:57;98976.75;;;11.74;100.00
24858;BME280;12935;50.782;6.074;2023-11-19T07:03:22;98970.94;;;11.69;100.00
24858;BME280;12935;50.782;6.074;2023-11-19T07:05:47;98984.69;;;11.65;100.00
24858;BME280;12935;50.782;6.074;2023-11-19T07:08:13;98992.16;;;11.65;100.00
24858;BME280;12935;50.782;6.074;2023-11-19T07:10:39;98994.88;;;11.65;100.00
24858;BME280;12935;50.782;6.074;2023-11-19T07:13:04;98989.75;;;11.67;100.00
24858;BME280;12935;50.782;6.074;2023-11-19T07:15:31;98995.53;;;11.72;100.00
24858;BME280;12935;50.782;6.074;2023-11-19T07:17:57;98990.00;;;11.79;100.00
24858;BME280;12935;50.782;6.074;2023-11-19T07:20:24;98985.41;;;11.69;100.00
24858;BME280;12935;50.782;6.074;2023-11-19T07:22:49;99000.41;;;11.61;100.00
24858;BME280;12935;50.782;6.074;2023-11-19T07:25:15;99024.25;;;11.60;100.00
24858;BME280;12935;50.782;6.074;2023-11-19T07:27:40;99017.38;;;11.49;100.00
24858;BME280;12935;50.782;6.074;2023-11-19T07:30:06;99031.47;;;11.47;100.00
24858;BME280;12935;50.782;6.074;2023-11-19T07:32:33;99029.50;;;11.48;100.00
24858;BME280;12935;50.782;6.074;2023-11-19T07:34:58;99029.44;;;11.51;100.00
24858;BME280;12935;50.782;6.074;2023-11-19T07:37:23;99025.63;;;11.45;100.00
24858;BME280;12935;50.782;6.074;2023-11-19T07:39:49;99032.66;;;11.46;100.00
24858;BME280;12935;50.782;6.074;2023-11-19T07:42:14;99029.03;;;11.53;100.00
24858;BME280;12935;50.782;6.074;2023-11-19T07:44:39;99038.50;;;11.48;100.00
24858;BME280;12935;50.782;6.074;2023-11-19T07:47:05;99037.34;;;11.46;100.00
24858;BME280;12935;50.782;6.074;2023-11-19T07:49:30;99034.19;;;11.47;100.00
24858;BME280;12935;50.782;6.074;2023-11-19T07:51:56;99023.66;;;11.46;100.00
24858;BME280;12935;50.782;6.074;2023-11-19T07:54:21;99030.81;;;11.36;100.00
24858;BME280;12935;50.782;6.074;2023-11-19T07:56:47;99022.19;;;11.38;100.00
24858;BME280;12935;50.782;6.074;2023-11-19T07:59:12;99028.78;;;11.44;100.00
24858;BME280;12935;50.782;6.074;2023-11-19T08:01:37;99033.59;;;11.33;100.00
24858;BME280;12935;50.782;6.074;2023-11-19T08:04:03;99032.88;;;11.29;100.00
24858;BME280;12935;50.782;6.074;2023-11-19T08:06:28;99054.25;;;11.37;100.00
24858;BME280;12935;50.782;6.074;2023-11-19T08:08:53;99052.66;;;11.40;100.00
24858;BME280;12935;50.782;6.074;2023-11-19T08:11:19;99049.19;;;11.36;100.00
24858;BME280;12935;50.782;6.074;2023-11-19T08:13:47;99040.59;;;11.34;100.00
24858;BME280;12935;50.782;6.074;2023-11-19T08:16:13;99042.47;;;11.40;100.00
24858;BME280;12935;50.782;6.074;2023-11-19T08:18:41;99033.16;;;11.34;100.00
24858;BME280;12935;50.782;6.074;2023-11-19T08:21:07;99056.66;;;11.32;100.00
24858;BME280;12935;50.782;6.074;2023-11-19T08:23:32;99043.69;;;11.36;100.00
24858;BME280;12935;50.782;6.074;2023-11-19T08:25:57;99042.47;;;11.40;100.00
24858;BME280;12935;50.782;6.074;2023-11-19T08:28:23;99048.53;;;11.55;100.00
24858;BME280;12935;50.782;6.074;2023-11-19T08:30:48;99040.38;;;11.51;100.00
24858;BME280;12935;50.782;6.074;2023-11-19T08:33:13;99040.50;;;11.44;100.00
24858;BME280;12935;50.782;6.074;2023-11-19T08:35:40;99058.84;;;11.44;100.00
24858;BME280;12935;50.782;6.074;2023-11-19T08:38:05;99043.25;;;11.41;100.00
24858;BME280;12935;50.782;6.074;2023-11-19T08:40:30;99047.16;;;11.43;100.00
24858;BME280;12935;50.782;6.074;2023-11-19T08:42:56;99045.81;;;11.55;100.00
24858;BME280;12935;50.782;6.074;2023-11-19T08:45:21;99040.75;;;11.53;100.00
24858;BME280;12935;50.782;6.074;2023-11-19T08:47:47;99045.00;;;11.58;100.00
24858;BME280;12935;50.782;6.074;2023-11-19T08:50:12;99070.00;;;11.60;100.00
24858;BME280;12935;50.782;6.074;2023-11-19T08:52:37;99051.91;;;11.66;100.00
24858;BME280;12935;50.782;6.074;2023-11-19T08:55:03;99053.47;;;11.67;100.00
24858;BME280;12935;50.782;6.074;2023-11-19T08:57:30;99055.94;;;11.58;100.00
24858;BME280;12935;50.782;6.074;2023-11-19T08:59:55;99057.13;;;11.57;100.00
24858;BME280;12935;50.782;6.074;2023-11-19T09:02:21;99056.31;;;11.60;100.00
24858;BME280;12935;50.782;6.074;2023-11-19T09:04:46;99060.56;;;11.65;100.00
24858;BME280;12935;50.782;6.074;2023-11-19T09:07:11;99060.41;;;11.75;100.00
24858;BME280;12935;50.782;6.074;2023-11-19T09:09:37;99053.38;;;11.78;100.00
24858;BME280;12935;50.782;6.074;2023-11-19T09:12:03;99056.41;;;11.83;100.00
24858;BME280;12935;50.782;6.074;2023-11-19T09:14:31;99059.13;;;11.83;100.00
24858;BME280;12935;50.782;6.074;2023-11-19T09:16:57;99053.94;;;11.92;100.00
24858;BME280;12935;50.782;6.074;2023-11-19T09:19:23;99050.44;;;11.92;100.00
24858;BME280;12935;50.782;6.074;2023-11-19T09:21:48;99046.78;;;11.99;100.00
24858;BME280;12935;50.782;6.074;2023-11-19T09:24:14;99058.50;;;11.99;100.00
24858;BME280;12935;50.782;6.074;2023-11-19T09:26:40;99052.59;;;12.04;100.00
24858;BME280;12935;50.782;6.074;2023-11-19T09:29:07;99061.81;;;12.14;100.00
24858;BME280;12935;50.782;6.074;2023-11-19T09:31:33;99061.81;;;12.14;100.00
24858;BME280;12935;50.782;6.074;2023-11-19T09:33:58;99070.13;;;12.34;100.00
24858;BME280;12935;50.782;6.074;2023-11-19T09:36:23;99070.25;;;12.26;100.00
24858;BME280;12935;50.782;6.074;2023-11-19T09:38:48;99072.56;;;12.28;100.00
24858;BME280;12935;50.782;6.074;2023-11-19T09:41:14;99072.81;;;12.37;100.00
24858;BME280;12935;50.782;6.074;2023-11-19T09:43:41;99063.78;;;12.40;100.00
24858;BME280;12935;50.782;6.074;2023-11-19T09:46:12;99068.56;;;12.33;100.00
24858;BME280;12935;50.782;6.074;2023-11-19T09:48:39;99067.19;;;12.44;100.00
24858;BME280;12935;50.782;6.074;2023-11-19T09:51:06;99074.72;;;12.63;100.00
24858;BME280;12935;50.782;6.074;2023-11-19T09:53:33;99068.78;;;12.69;100.00
24858;BME280;12935;50.782;6.074;2023-11-19T09:56:03;99054.44;;;12.81;100.00
24858;BME280;12935;50.782;6.074;2023-11-19T09:58:29;99048.91;;;12.84;100.00
24858;BME280;12935;50.782;6.074;2023-11-19T10:00:56;99047.06;;;12.78;100.00
24858;BME280;12935;50.782;6.074;2023-11-19T10:03:25;99049.84;;;12.54;100.00
24858;BME280;12935;50.782;6.074;2023-11-19T10:05:53;99055.16;;;12.85;100.00
24858;BME280;12935;50.782;6.074;2023-11-19T10:08:19;99039.75;;;12.91;100.00
24858;BME280;12935;50.782;6.074;2023-11-19T10:10:45;99042.38;;;12.98;100.00
24858;BME280;12935;50.782;6.074;2023-11-19T10:13:10;99041.03;;;12.86;100.00
24858;BME280;12935;50.782;6.074;2023-11-19T10:15:36;99035.13;;;13.08;100.00
24858;BME280;12935;50.782;6.074;2023-11-19T10:18:02;99038.88;;;12.97;100.00
24858;BME280;12935;50.782;6.074;2023-11-19T10:20:37;99034.13;;;12.78;100.00
24858;BME280;12935;50.782;6.074;2023-11-19T10:23:05;99033.09;;;12.92;100.00
24858;BME280;12935;50.782;6.074;2023-11-19T10:25:32;99039.59;;;12.78;100.00
24858;BME280;12935;50.782;6.074;2023-11-19T10:27:58;99040.03;;;12.77;100.00
24858;BME280;12935;50.782;6.074;2023-11-19T10:30:28;99050.34;;;12.69;100.00
24858;BME280;12935;50.782;6.074;2023-11-19T10:33:07;99041.31;;;12.72;100.00
24858;BME280;12935;50.782;6.074;2023-11-19T10:35:34;99054.97;;;12.95;100.00
24858;BME280;12935;50.782;6.074;2023-11-19T10:38:00;99040.28;;;13.06;100.00
24858;BME280;12935;50.782;6.074;2023-11-19T10:40:47;99051.50;;;12.91;100.00
24858;BME280;12935;50.782;6.074;2023-11-19T10:43:12;99045.00;;;13.05;100.00
24858;BME280;12935;50.782;6.074;2023-11-19T10:45:38;99036.47;;;12.99;100.00
24858;BME280;12935;50.782;6.074;2023-11-19T10:48:04;99049.97;;;13.10;100.00
24858;BME280;12935;50.782;6.074;2023-11-19T10:50:34;99054.19;;;12.95;100.00
24858;BME280;12935;50.782;6.074;2023-11-19T10:53:00;99058.06;;;12.97;100.00
24858;BME280;12935;50.782;6.074;2023-11-19T10:55:33;99062.56;;;12.88;100.00
24858;BME280;12935;50.782;6.074;2023-11-19T10:58:02;99055.38;;;12.94;100.00
24858;BME280;12935;50.782;6.074;2023-11-19T11:00:29;99060.19;;;13.10;100.00
24858;BME280;12935;50.782;6.074;2023-11-19T11:03:01;99054.34;;;13.08;100.00
24858;BME280;12935;50.782;6.074;2023-11-19T11:05:32;99051.19;;;12.89;100.00
24858;BME280;12935;50.782;6.074;2023-11-19T11:08:00;99038.09;;;12.97;100.00
24858;BME280;12935;50.782;6.074;2023-11-19T11:10:26;99023.66;;;13.16;100.00
24858;BME280;12935;50.782;6.074;2023-11-19T11:12:52;99032.91;;;13.22;100.00
24858;BME280;12935;50.782;6.074;2023-11-19T11:15:26;99031.53;;;12.71;100.00
24858;BME280;12935;50.782;6.074;2023-11-19T11:17:56;99045.06;;;13.02;100.00
24858;BME280;12935;50.782;6.074;2023-11-19T11:20:23;99029.31;;;13.25;100.00
24858;BME280;12935;50.782;6.074;2023-11-19T11:28:54;99010.25;;;13.38;100.00
24858;BME280;12935;50.782;6.074;2023-11-19T11:34:16;99015.78;;;13.54;100.00
24858;BME280;12935;50.782;6.074;2023-11-19T11:36:55;99002.41;;;13.56;100.00
24858;BME280;12935;50.782;6.074;2023-11-19T11:39:24;99003.13;;;13.60;100.00
24858;BME280;12935;50.782;6.074;2023-11-19T11:47:26;99004.63;;;13.97;100.00
24858;BME280;12935;50.782;6.074;2023-11-19T11:58:23;99022.81;;;14.08;100.00
24858;BME280;12935;50.782;6.074;2023-11-19T12:00:51;99013.53;;;13.69;100.00
24858;BME280;12935;50.782;6.074;2023-11-19T12:03:20;99008.56;;;13.24;100.00
24858;BME280;12935;50.782;6.074;2023-11-19T12:05:47;99009.69;;;13.47;100.00
24858;BME280;12935;50.782;6.074;2023-11-19T12:08:13;98997.22;;;13.42;100.00
24858;BME280;12935;50.782;6.074;2023-11-19T12:10:48;99012.19;;;13.57;100.00
24858;BME280;12935;50.782;6.074;2023-11-19T12:13:15;99003.94;;;13.93;100.00
24858;BME280;12935;50.782;6.074;2023-11-19T12:18:30;99000.69;;;13.98;100.00
24858;BME280;12935;50.782;6.074;2023-11-19T12:20:57;98983.84;;;13.80;100.00
24858;BME280;12935;50.782;6.074;2023-11-19T12:23:26;98986.81;;;13.69;100.00
24858;BME280;12935;50.782;6.074;2023-11-19T12:25:51;98985.94;;;13.20;100.00
24858;BME280;12935;50.782;6.074;2023-11-19T12:28:17;98969.59;;;13.13;100.00
24858;BME280;12935;50.782;6.074;2023-11-19T12:30:44;98981.00;;;13.12;100.00
24858;BME280;12935;50.782;6.074;2023-11-19T12:33:10;98971.09;;;13.18;100.00
24858;BME280;12935;50.782;6.074;2023-11-19T12:35:40;98994.31;;;13.33;100.00
24858;BME280;12935;50.782;6.074;2023-11-19T12:38:05;98983.44;;;13.46;100.00
24858;BME280;12935;50.782;6.074;2023-11-19T12:40:31;98990.06;;;13.28;100.00
24858;BME280;12935;50.782;6.074;2023-11-19T12:42:57;98977.78;;;13.37;100.00
24858;BME280;12935;50.782;6.074;2023-11-19T12:45:22;98973.00;;;13.21;100.00
24858;BME280;12935;50.782;6.074;2023-11-19T12:47:49;98974.38;;;13.09;100.00
24858;BME280;12935;50.782;6.074;2023-11-19T12:50:15;98974.09;;;12.84;100.00
24858;BME280;12935;50.782;6.074;2023-11-19T12:52:42;98972.75;;;12.92;100.00
24858;BME280;12935;50.782;6.074;2023-11-19T12:55:28;98968.38;;;13.18;100.00
24858;BME280;12935;50.782;6.074;2023-11-19T12:57:54;98973.41;;;12.99;100.00
24858;BME280;12935;50.782;6.074;2023-11-19T13:00:24;98975.16;;;13.10;100.00
24858;BME280;12935;50.782;6.074;2023-11-19T13:02:54;98963.97;;;13.00;100.00
24858;BME280;12935;50.782;6.074;2023-11-19T13:05:32;98962.25;;;12.90;100.00
24858;BME280;12935;50.782;6.074;2023-11-19T13:08:05;98943.53;;;12.85;100.00
24858;BME280;12935;50.782;6.074;2023-11-19T13:10:32;98958.22;;;13.15;100.00
24858;BME280;12935;50.782;6.074;2023-11-19T13:13:05;98965.84;;;13.43;100.00
24858;BME280;12935;50.782;6.074;2023-11-19T13:15:32;98974.09;;;13.43;100.00